createdAt,value
2017-12-20T00:00:52.100Z,21.57
2017-12-20T00:03:20.318Z,17.77
2017-12-20T00:05:48.219Z,21.03
2017-12-20T00:08:15.998Z,20.73
2017-12-20T00:10:44.578Z,22.87
2017-12-20T00:13:12.478Z,21.03
2017-12-20T00:15:40.218Z,19.83
2017-12-20T00:18:08.098Z,22.67
2017-12-20T00:20:35.924Z,18.43
2017-12-20T00:23:03.798Z,18.70
2017-12-20T00:25:31.538Z,20.00
2017-12-20T00:27:59.587Z,18.83
2017-12-20T00:30:27.379Z,23.07
2017-12-20T00:32:55.318Z,23.20
2017-12-20T00:35:26.199Z,25.37
2017-12-20T00:37:54.118Z,25.30
2017-12-20T00:40:21.878Z,28.70
2017-12-20T00:42:49.778Z,24.23
2017-12-20T00:45:19.500Z,25.60
2017-12-20T00:47:47.579Z,22.33
2017-12-20T00:50:15.518Z,22.07
2017-12-20T00:52:43.338Z,23.00
2017-12-20T00:55:11.177Z,21.53
2017-12-20T00:57:39.138Z,25.40
2017-12-20T01:00:07.039Z,25.20
2017-12-20T01:02:34.904Z,22.53
2017-12-20T01:05:02.817Z,19.07
2017-12-20T01:07:30.822Z,16.13
2017-12-20T01:09:58.625Z,21.80
2017-12-20T01:12:27.604Z,22.37
2017-12-20T01:14:55.985Z,24.83
2017-12-20T01:17:23.963Z,25.70
2017-12-20T01:19:51.963Z,23.93
2017-12-20T01:22:19.990Z,21.97
2017-12-20T01:24:48.022Z,21.10
2017-12-20T01:27:15.842Z,23.57
2017-12-20T01:29:43.721Z,21.87
2017-12-20T01:32:11.621Z,20.37
2017-12-20T01:34:39.778Z,21.17
2017-12-20T01:37:07.663Z,22.50
2017-12-20T01:39:35.521Z,24.07
2017-12-20T01:42:03.570Z,26.77
2017-12-20T01:44:31.540Z,24.73
2017-12-20T01:46:59.904Z,29.07
2017-12-20T01:49:27.745Z,24.93
2017-12-20T01:51:55.602Z,25.40
2017-12-20T01:54:25.526Z,21.90
2017-12-20T01:56:53.500Z,20.83
2017-12-20T01:59:21.586Z,23.30
2017-12-20T02:01:49.459Z,23.23
2017-12-20T02:04:17.358Z,23.83
2017-12-20T02:06:45.138Z,22.50
2017-12-20T02:09:12.918Z,22.03
2017-12-20T02:11:40.958Z,23.63
2017-12-20T02:14:09.018Z,28.73
2017-12-20T02:16:36.860Z,25.47
2017-12-20T02:19:04.938Z,23.90
2017-12-20T02:21:32.878Z,23.40
2017-12-20T02:24:01.039Z,28.10
2017-12-20T02:26:29.066Z,21.43
2017-12-20T02:28:57.078Z,25.87
2017-12-20T02:31:25.039Z,23.47
2017-12-20T02:33:53.058Z,24.13
2017-12-20T02:36:21.098Z,26.40
2017-12-20T02:38:49.058Z,27.00
2017-12-20T02:41:17.079Z,29.47
2017-12-20T02:43:44.958Z,25.67
2017-12-20T02:46:12.819Z,28.97
2017-12-20T02:48:40.759Z,23.87
2017-12-20T02:51:08.739Z,25.83
2017-12-20T02:53:37.018Z,23.87
2017-12-20T02:56:05.438Z,22.97
2017-12-20T02:58:33.318Z,24.40
2017-12-20T03:01:02.082Z,22.00
2017-12-20T03:03:29.901Z,25.73
2017-12-20T03:05:58.682Z,25.10
2017-12-20T03:08:26.561Z,23.47
2017-12-20T03:10:54.522Z,23.03
2017-12-20T03:13:22.381Z,22.43
2017-12-20T03:15:50.201Z,23.97
2017-12-20T03:18:18.361Z,22.20
2017-12-20T03:20:46.321Z,23.30
2017-12-20T03:23:14.242Z,25.47
2017-12-20T03:25:42.181Z,22.67
2017-12-20T03:28:10.022Z,26.43
2017-12-20T03:30:37.902Z,23.87
2017-12-20T03:33:05.864Z,24.77
2017-12-20T03:35:33.678Z,24.73
2017-12-20T03:38:01.558Z,24.87
2017-12-20T03:40:29.498Z,22.50
2017-12-20T03:42:57.359Z,26.03
2017-12-20T03:45:25.258Z,21.50
2017-12-20T03:47:53.338Z,25.97
2017-12-20T03:50:21.271Z,23.80
2017-12-20T03:52:49.358Z,25.57
2017-12-20T03:55:17.778Z,25.40
2017-12-20T03:57:45.738Z,25.17
2017-12-20T04:00:13.403Z,21.83
2017-12-20T04:02:41.322Z,24.10
2017-12-20T04:05:09.280Z,23.23
2017-12-20T04:07:37.459Z,23.40
2017-12-20T04:10:05.726Z,25.17
2017-12-20T04:12:33.659Z,24.27
2017-12-20T04:15:01.819Z,26.67
2017-12-20T04:17:29.739Z,28.00
2017-12-20T04:19:57.601Z,24.63
2017-12-20T04:22:25.460Z,23.47
2017-12-20T04:24:53.839Z,23.50
2017-12-20T04:27:21.861Z,23.80
2017-12-20T04:29:49.721Z,24.67
2017-12-20T04:32:17.559Z,21.93
2017-12-20T04:34:45.420Z,25.30
2017-12-20T04:37:13.501Z,23.87
2017-12-20T04:39:41.400Z,27.83
2017-12-20T04:42:11.623Z,23.03
2017-12-20T04:44:39.540Z,23.77
2017-12-20T04:47:07.501Z,27.90
2017-12-20T04:49:35.440Z,22.33
2017-12-20T04:52:03.500Z,27.20
2017-12-20T04:54:31.459Z,28.30
2017-12-20T04:56:59.740Z,24.23
2017-12-20T04:59:27.642Z,26.30
2017-12-20T05:01:55.565Z,28.87
2017-12-20T05:04:23.441Z,21.50
2017-12-20T05:06:51.581Z,25.33
2017-12-20T05:09:19.741Z,23.57
2017-12-20T05:11:47.661Z,21.73
2017-12-20T05:14:15.520Z,24.97
2017-12-20T05:16:43.521Z,20.50
2017-12-20T05:19:11.341Z,29.17
2017-12-20T05:21:39.202Z,20.77
2017-12-20T05:24:08.022Z,20.97
2017-12-20T05:26:36.160Z,20.33
2017-12-20T05:29:04.340Z,25.50
2017-12-20T05:31:32.179Z,24.17
2017-12-20T05:34:00.039Z,21.90
2017-12-20T05:36:28.102Z,23.37
2017-12-20T05:38:55.947Z,21.27
2017-12-20T05:41:23.700Z,22.33
2017-12-20T05:43:51.680Z,19.83
2017-12-20T05:46:19.900Z,29.83
2017-12-20T05:48:47.779Z,27.90
2017-12-20T05:51:15.939Z,34.83
2017-12-20T05:53:44.678Z,25.10
2017-12-20T05:56:12.519Z,29.67
2017-12-20T06:01:12.402Z,30.77
2017-12-20T06:03:40.219Z,31.30
2017-12-20T06:06:07.940Z,26.17
2017-12-20T06:08:35.760Z,26.07
2017-12-20T06:11:03.540Z,25.30
2017-12-20T06:13:31.346Z,22.87
2017-12-20T06:15:59.218Z,24.80
2017-12-20T06:18:27.162Z,24.13
2017-12-20T06:20:55.174Z,21.43
2017-12-20T06:23:22.958Z,20.67
2017-12-20T06:25:50.672Z,31.53
2017-12-20T06:28:18.673Z,27.60
2017-12-20T06:30:46.416Z,25.90
2017-12-20T06:33:14.236Z,28.67
2017-12-20T06:35:42.207Z,19.70
2017-12-20T06:38:10.027Z,25.87
2017-12-20T06:40:38.660Z,22.90
2017-12-20T06:43:07.601Z,24.53
2017-12-20T06:45:37.342Z,29.10
2017-12-20T06:48:06.418Z,23.93
2017-12-20T06:50:35.352Z,27.53
2017-12-20T06:53:04.561Z,17.70
2017-12-20T06:55:32.888Z,19.43
2017-12-20T06:58:00.685Z,22.27
2017-12-20T07:00:28.464Z,17.20
2017-12-20T07:02:56.206Z,24.97
2017-12-20T07:05:23.943Z,29.03
2017-12-20T07:07:51.763Z,27.03
2017-12-20T07:10:19.510Z,26.20
2017-12-20T07:12:47.219Z,23.83
2017-12-20T07:15:15.019Z,26.37
2017-12-20T07:17:42.725Z,18.90
2017-12-20T07:20:10.502Z,21.50
2017-12-20T07:22:39.098Z,22.40
2017-12-20T07:25:06.900Z,18.50
2017-12-20T07:27:34.703Z,29.63
2017-12-20T07:30:02.500Z,26.17
2017-12-20T07:32:30.380Z,25.03
2017-12-20T07:34:58.122Z,26.07
2017-12-20T07:37:25.941Z,22.83
2017-12-20T07:39:53.762Z,23.43
2017-12-20T07:42:21.582Z,21.20
2017-12-20T07:44:49.441Z,22.70
2017-12-20T07:47:17.287Z,25.33
2017-12-20T07:49:44.983Z,19.40
2017-12-20T07:52:12.863Z,32.90
2017-12-20T07:54:40.668Z,32.73
2017-12-20T07:57:08.439Z,35.60
2017-12-20T07:59:36.512Z,25.53
2017-12-20T08:02:04.357Z,18.63
2017-12-20T08:04:32.121Z,23.53
2017-12-20T08:07:00.109Z,21.07
2017-12-20T08:09:27.903Z,25.13
2017-12-20T08:11:55.685Z,23.97
2017-12-20T08:14:23.499Z,21.67
2017-12-20T08:16:51.300Z,23.43
2017-12-20T08:19:19.079Z,20.07
2017-12-20T08:21:46.883Z,21.20
2017-12-20T08:24:14.679Z,21.07
2017-12-20T08:26:42.567Z,21.43
2017-12-20T08:29:10.380Z,24.27
2017-12-20T08:31:38.222Z,23.33
2017-12-20T08:34:05.985Z,23.53
2017-12-20T08:36:33.786Z,24.67
2017-12-20T08:39:01.560Z,28.30
2017-12-20T08:41:29.338Z,26.33
2017-12-20T08:43:57.198Z,22.87
2017-12-20T08:46:24.964Z,24.23
2017-12-20T08:48:52.726Z,24.77
2017-12-20T08:51:20.585Z,27.07
2017-12-20T08:53:48.365Z,26.03
2017-12-20T08:56:16.165Z,25.83
2017-12-20T08:58:43.986Z,27.23
2017-12-20T09:01:11.820Z,23.77
2017-12-20T09:03:39.625Z,25.60
2017-12-20T09:06:07.486Z,25.70
2017-12-20T09:08:35.286Z,21.87
2017-12-20T09:11:03.086Z,20.13
2017-12-20T09:13:30.902Z,19.63
2017-12-20T09:15:58.663Z,21.30
2017-12-20T09:18:26.492Z,19.17
2017-12-20T09:20:54.321Z,18.60
2017-12-20T09:23:22.240Z,17.40
2017-12-20T09:25:50.040Z,14.80
2017-12-20T09:28:17.920Z,15.87
2017-12-20T09:30:45.700Z,16.40
2017-12-20T09:33:13.519Z,15.57
2017-12-20T09:35:41.318Z,17.53
2017-12-20T09:38:09.118Z,24.57
2017-12-20T09:40:36.860Z,20.60
2017-12-20T09:43:04.658Z,24.43
2017-12-20T09:45:32.438Z,25.73
2017-12-20T09:48:00.180Z,26.73
2017-12-20T09:50:27.959Z,14.60
2017-12-20T09:52:55.843Z,13.77
2017-12-20T09:55:23.603Z,13.50
2017-12-20T09:57:51.402Z,18.80
2017-12-20T10:00:19.182Z,21.93
2017-12-20T10:02:46.991Z,19.87
2017-12-20T10:05:15.730Z,19.67
2017-12-20T10:07:43.647Z,19.97
2017-12-20T10:10:11.503Z,19.97
2017-12-20T10:12:39.321Z,18.97
2017-12-20T10:15:07.882Z,17.67
2017-12-20T10:17:35.642Z,18.87
2017-12-20T10:20:03.548Z,19.57
2017-12-20T10:22:31.343Z,17.87
2017-12-20T10:24:59.843Z,18.03
2017-12-20T10:27:27.785Z,19.90
2017-12-20T10:29:55.562Z,16.73
2017-12-20T10:32:23.351Z,19.63
2017-12-20T10:34:51.113Z,19.57
2017-12-20T10:37:18.848Z,16.97
2017-12-20T10:39:46.671Z,20.47
2017-12-20T10:42:14.553Z,16.77
2017-12-20T10:44:42.378Z,19.43
2017-12-20T10:47:10.138Z,18.17
2017-12-20T10:49:38.219Z,18.70
2017-12-20T10:52:06.746Z,17.43
2017-12-20T10:54:34.618Z,15.93
2017-12-20T10:57:02.417Z,18.93
2017-12-20T10:59:30.188Z,18.77
2017-12-20T11:01:57.960Z,18.57
2017-12-20T11:04:26.584Z,17.83
2017-12-20T11:06:54.339Z,21.53
2017-12-20T11:09:22.158Z,20.67
2017-12-20T11:11:49.977Z,24.63
2017-12-20T11:14:17.763Z,23.50
2017-12-20T11:16:45.504Z,23.63
2017-12-20T11:19:13.303Z,21.80
2017-12-20T11:21:41.180Z,20.33
2017-12-20T11:24:09.060Z,24.80
2017-12-20T11:26:36.840Z,26.13
2017-12-20T11:29:04.658Z,24.40
2017-12-20T11:31:32.440Z,27.33
2017-12-20T11:34:00.278Z,22.87
2017-12-20T11:36:28.028Z,24.07
2017-12-20T11:38:55.782Z,23.10
2017-12-20T11:41:23.691Z,22.37
2017-12-20T11:43:51.521Z,24.07
2017-12-20T11:46:19.440Z,20.33
2017-12-20T11:48:47.322Z,19.43
2017-12-20T11:51:15.327Z,20.87
2017-12-20T11:53:43.741Z,19.60
2017-12-20T11:56:11.823Z,21.30
2017-12-20T11:58:39.579Z,19.47
2017-12-20T12:01:07.419Z,20.10
2017-12-20T12:03:35.299Z,21.67
2017-12-20T12:06:03.118Z,22.13
2017-12-20T12:08:30.918Z,23.67
2017-12-20T12:10:58.799Z,20.90
2017-12-20T12:13:26.598Z,21.17
2017-12-20T12:15:54.466Z,24.77
2017-12-20T12:18:22.878Z,23.77
2017-12-20T12:20:50.792Z,26.40
2017-12-20T12:23:18.740Z,25.40
2017-12-20T12:25:47.469Z,24.30
2017-12-20T12:28:15.382Z,24.20
2017-12-20T12:30:43.801Z,25.63
2017-12-20T12:33:11.722Z,25.63
2017-12-20T12:35:39.624Z,23.93
2017-12-20T12:38:08.283Z,21.30
2017-12-20T12:40:36.160Z,19.33
2017-12-20T12:43:04.002Z,15.57
2017-12-20T12:45:31.820Z,17.93
2017-12-20T12:47:59.802Z,15.53
2017-12-20T12:50:27.640Z,19.57
2017-12-20T12:52:55.543Z,19.73
2017-12-20T12:55:23.881Z,24.27
2017-12-20T12:57:51.681Z,23.47
2017-12-20T13:00:24.754Z,18.50
2017-12-20T13:02:52.580Z,19.60
2017-12-20T13:05:20.380Z,15.77
2017-12-20T13:07:48.182Z,17.87
2017-12-20T13:10:16.084Z,18.67
2017-12-20T13:12:44.725Z,17.73
2017-12-20T13:15:13.065Z,20.10
2017-12-20T13:17:40.923Z,22.17
2017-12-20T13:20:08.684Z,14.77
2017-12-20T13:22:36.588Z,13.03
2017-12-20T13:25:04.281Z,14.97
2017-12-20T13:27:32.069Z,12.67
2017-12-20T13:30:00.580Z,17.47
2017-12-20T13:32:28.359Z,16.93
2017-12-20T13:34:56.245Z,12.00
2017-12-20T13:37:24.129Z,11.33
2017-12-20T13:39:52.023Z,11.53
2017-12-20T13:42:19.840Z,9.50
2017-12-20T13:44:47.640Z,10.70
2017-12-20T13:47:15.445Z,7.97
2017-12-20T13:49:43.260Z,8.90
2017-12-20T13:52:11.140Z,10.53
2017-12-20T13:54:39.147Z,12.77
2017-12-20T13:57:06.999Z,13.50
2017-12-20T13:59:34.880Z,12.70
2017-12-20T14:02:02.720Z,11.13
2017-12-20T14:04:30.560Z,13.17
2017-12-20T14:06:58.339Z,11.93
2017-12-20T14:09:26.138Z,11.10
2017-12-20T14:11:53.898Z,11.17
2017-12-20T14:14:21.693Z,9.27
2017-12-20T14:16:49.538Z,12.30
2017-12-20T14:19:18.058Z,13.23
2017-12-20T14:21:45.859Z,10.63
2017-12-20T14:24:13.638Z,14.13
2017-12-20T14:26:41.439Z,18.17
2017-12-20T14:29:09.218Z,15.03
2017-12-20T14:31:37.059Z,14.63
2017-12-20T14:34:04.879Z,12.57
2017-12-20T14:36:32.739Z,17.20
2017-12-20T14:39:00.559Z,16.00
2017-12-20T14:41:28.343Z,17.67
2017-12-20T14:43:56.124Z,16.73
2017-12-20T14:46:24.864Z,18.60
2017-12-20T14:48:52.683Z,19.60
2017-12-20T14:51:20.583Z,17.93
2017-12-20T14:53:48.419Z,18.47
2017-12-20T14:56:16.279Z,15.57
2017-12-20T14:58:44.098Z,18.63
2017-12-20T15:01:11.907Z,15.77
2017-12-20T15:03:39.883Z,14.00
2017-12-20T15:06:07.764Z,13.47
2017-12-20T15:08:35.539Z,11.17
2017-12-20T15:11:03.440Z,11.13
2017-12-20T15:13:31.221Z,17.30
2017-12-20T15:15:59.081Z,16.83
2017-12-20T15:18:26.982Z,12.10
2017-12-20T15:20:54.859Z,14.10
2017-12-20T15:23:22.698Z,15.37
2017-12-20T15:25:51.339Z,15.93
2017-12-20T15:28:19.159Z,17.40
2017-12-20T15:30:46.999Z,15.33
2017-12-20T15:33:15.652Z,15.93
2017-12-20T15:35:43.659Z,18.17
2017-12-20T15:38:11.518Z,32.47
2017-12-20T15:40:39.338Z,24.43
2017-12-20T15:43:07.260Z,25.30
2017-12-20T15:45:35.858Z,21.53
2017-12-20T15:48:03.679Z,27.07
2017-12-20T15:50:31.545Z,19.67
2017-12-20T15:53:00.103Z,18.83
2017-12-20T15:55:27.961Z,23.77
2017-12-20T15:57:56.562Z,21.17
2017-12-20T16:00:24.461Z,20.00
2017-12-20T16:02:52.282Z,20.70
2017-12-20T16:05:20.099Z,17.83
2017-12-20T16:07:47.898Z,17.43
2017-12-20T16:10:15.743Z,17.93
2017-12-20T16:12:44.364Z,18.80
2017-12-20T16:15:12.158Z,22.30
2017-12-20T16:17:40.098Z,23.37
2017-12-20T16:20:07.941Z,20.60
2017-12-20T16:22:36.820Z,20.20
2017-12-20T16:25:04.602Z,19.23
2017-12-20T16:27:32.461Z,18.43
2017-12-20T16:30:00.344Z,20.63
2017-12-20T16:32:28.242Z,19.43
2017-12-20T16:34:56.284Z,21.53
2017-12-20T16:37:24.142Z,21.63
2017-12-20T16:39:52.147Z,25.50
2017-12-20T16:42:20.103Z,18.43
2017-12-20T16:44:50.243Z,22.03
2017-12-20T16:47:18.049Z,22.33
2017-12-20T16:49:45.890Z,21.57
2017-12-20T16:52:13.741Z,23.80
2017-12-20T16:54:41.559Z,24.07
2017-12-20T16:57:09.402Z,21.73
2017-12-20T16:59:37.277Z,20.83
2017-12-20T17:02:05.109Z,21.87
2017-12-20T17:04:32.901Z,24.43
2017-12-20T17:07:00.798Z,21.50
2017-12-20T17:09:28.640Z,21.63
2017-12-20T17:11:56.525Z,21.00
2017-12-20T17:14:24.325Z,22.43
2017-12-20T17:16:52.180Z,23.40
2017-12-20T17:19:20.010Z,25.60
2017-12-20T17:21:47.898Z,29.77
2017-12-20T17:24:15.727Z,39.43
2017-12-20T17:26:43.582Z,25.40
2017-12-20T17:29:11.361Z,28.30
2017-12-20T17:31:39.182Z,25.50
2017-12-20T17:34:07.059Z,23.20
2017-12-20T17:36:34.900Z,23.57
2017-12-20T17:39:02.858Z,23.33
2017-12-20T17:41:30.741Z,23.03
2017-12-20T17:43:58.623Z,22.23
2017-12-20T17:46:26.460Z,19.03
2017-12-20T17:48:54.299Z,23.50
2017-12-20T17:51:22.164Z,36.40
2017-12-20T17:53:50.003Z,36.13
2017-12-20T17:56:17.796Z,26.63
2017-12-20T17:58:45.666Z,26.97
2017-12-20T18:01:13.501Z,21.43
2017-12-20T18:03:41.261Z,26.70
2017-12-20T18:06:09.120Z,21.83
2017-12-20T18:08:36.981Z,23.57
2017-12-20T18:11:04.802Z,25.00
2017-12-20T18:13:32.644Z,24.83
2017-12-20T18:16:00.461Z,23.43
2017-12-20T18:18:28.364Z,25.57
2017-12-20T18:20:56.121Z,26.87
2017-12-20T18:23:23.942Z,26.57
2017-12-20T18:25:51.779Z,26.53
2017-12-20T18:28:19.561Z,27.03
2017-12-20T18:30:47.319Z,22.40
2017-12-20T18:33:15.185Z,20.30
2017-12-20T18:35:43.057Z,22.53
2017-12-20T18:38:10.901Z,21.03
2017-12-20T18:40:38.680Z,23.17
2017-12-20T18:43:06.499Z,21.87
2017-12-20T18:45:34.298Z,19.33
2017-12-20T18:48:02.148Z,23.17
2017-12-20T18:50:30.047Z,25.47
2017-12-20T18:52:57.861Z,22.10
2017-12-20T18:55:25.681Z,23.47
2017-12-20T18:57:53.480Z,22.63
2017-12-20T19:00:26.020Z,23.97
2017-12-20T19:02:54.487Z,24.87
2017-12-20T19:05:22.595Z,22.60
2017-12-20T19:07:50.403Z,25.50
2017-12-20T19:10:18.306Z,18.47
2017-12-20T19:12:46.203Z,22.17
2017-12-20T19:15:14.099Z,27.03
2017-12-20T19:17:41.978Z,21.20
2017-12-20T19:20:09.760Z,20.40
2017-12-20T19:22:37.663Z,31.23
2017-12-20T19:25:05.439Z,26.37
2017-12-20T19:27:33.323Z,23.90
2017-12-20T19:30:01.226Z,20.97
2017-12-20T19:32:29.059Z,25.17
2017-12-20T19:34:56.923Z,22.60
2017-12-20T19:37:24.722Z,24.70
2017-12-20T19:39:52.565Z,20.33
2017-12-20T19:42:20.466Z,25.33
2017-12-20T19:44:48.323Z,23.93
2017-12-20T19:47:16.508Z,24.03
2017-12-20T19:49:44.358Z,26.03
2017-12-20T19:52:12.120Z,22.20
2017-12-20T19:54:40.761Z,23.40
2017-12-20T19:57:08.662Z,23.57
2017-12-20T19:59:36.501Z,22.97
2017-12-20T20:02:04.400Z,28.53
2017-12-20T20:04:33.060Z,22.20
2017-12-20T20:07:00.941Z,25.77
2017-12-20T20:09:28.861Z,27.27
2017-12-20T20:11:56.744Z,26.07
2017-12-20T20:14:24.586Z,20.90
2017-12-20T20:16:52.423Z,20.27
2017-12-20T20:19:20.243Z,31.47
2017-12-20T20:21:48.104Z,30.37
2017-12-20T20:24:16.018Z,33.57
2017-12-20T20:26:43.846Z,38.47
2017-12-20T20:29:11.683Z,69.03
2017-12-20T20:31:39.539Z,58.37
2017-12-20T20:34:07.385Z,52.00
2017-12-20T20:36:35.286Z,35.93
2017-12-20T20:39:03.139Z,36.50
2017-12-20T20:41:30.941Z,36.00
2017-12-20T20:43:58.804Z,35.13
2017-12-20T20:46:26.620Z,32.97
2017-12-20T20:48:54.401Z,26.43
2017-12-20T20:51:22.217Z,32.80
2017-12-20T20:53:50.102Z,36.37
2017-12-20T20:56:18.721Z,37.27
2017-12-20T20:58:46.567Z,31.00
2017-12-20T21:01:14.376Z,33.60
2017-12-20T21:03:42.261Z,30.97
2017-12-20T21:06:10.172Z,30.50
2017-12-20T21:08:38.662Z,28.17
2017-12-20T21:11:06.681Z,28.40
2017-12-20T21:13:34.628Z,27.43
2017-12-20T21:16:02.516Z,31.07
2017-12-20T21:18:30.510Z,33.77
2017-12-20T21:20:58.328Z,32.20
2017-12-20T21:23:26.158Z,28.87
2017-12-20T21:25:53.992Z,31.57
2017-12-20T21:28:21.834Z,29.57
2017-12-20T21:30:57.885Z,27.77
2017-12-20T21:33:33.548Z,29.30
2017-12-20T21:36:01.727Z,30.17
2017-12-20T21:38:29.538Z,29.07
2017-12-20T21:40:57.308Z,30.23
2017-12-20T21:43:25.110Z,27.73
2017-12-20T21:45:52.934Z,27.97
2017-12-20T21:48:20.881Z,28.17
2017-12-20T21:50:53.748Z,26.10
2017-12-20T21:53:21.654Z,30.60
2017-12-20T21:55:49.525Z,29.97
2017-12-20T21:58:17.324Z,28.80
2017-12-20T22:00:45.204Z,27.03
2017-12-20T22:03:13.058Z,32.17
2017-12-20T22:08:33.253Z,31.90
2017-12-20T22:11:05.659Z,33.40
2017-12-20T22:13:45.565Z,28.70
2017-12-20T22:16:14.359Z,29.23
2017-12-20T22:18:42.188Z,32.63
2017-12-20T22:21:10.180Z,29.67
2017-12-20T22:23:37.999Z,38.50
2017-12-20T22:26:15.004Z,30.83
2017-12-20T22:28:42.901Z,32.13
2017-12-20T22:31:10.719Z,27.60
2017-12-20T22:33:38.507Z,32.90
2017-12-20T22:36:06.418Z,29.27
2017-12-20T22:38:34.500Z,28.90
2017-12-20T22:41:02.321Z,34.27
2017-12-20T22:43:30.117Z,32.17
2017-12-20T22:45:58.038Z,30.33
2017-12-20T22:48:25.958Z,33.20
2017-12-20T22:50:53.798Z,33.40
2017-12-20T22:53:21.620Z,24.80
2017-12-20T22:55:49.420Z,32.00
2017-12-20T22:58:17.202Z,28.63
2017-12-20T23:00:45.047Z,26.50
2017-12-20T23:03:13.368Z,30.43
2017-12-20T23:05:41.185Z,36.00
2017-12-20T23:08:08.919Z,30.63
2017-12-20T23:10:36.721Z,30.07
2017-12-20T23:13:04.458Z,31.57
2017-12-20T23:15:32.223Z,29.07
2017-12-20T23:18:00.083Z,28.70
2017-12-20T23:20:28.979Z,28.63
2017-12-20T23:22:56.786Z,28.80
2017-12-20T23:25:24.742Z,32.40
2017-12-20T23:27:52.639Z,28.57
2017-12-20T23:30:20.542Z,27.17
2017-12-20T23:32:48.387Z,32.63
2017-12-20T23:35:16.200Z,32.90
2017-12-20T23:37:43.981Z,33.73
2017-12-20T23:40:11.830Z,37.20
2017-12-20T23:42:39.658Z,39.97
2017-12-20T23:45:07.418Z,36.23
2017-12-20T23:47:35.260Z,39.63
2017-12-20T23:50:14.388Z,39.13
2017-12-20T23:52:42.606Z,44.57
2017-12-20T23:55:10.737Z,40.43
2017-12-20T23:57:38.828Z,36.07
